Don Gilberto im Turnier von 01.04.2019 bis 01.05.2019

Don Gilbertos Ergebnis

Rang 162.
Turnierpunkte 1003
Gespielt : Gewonnen 100 : 62
Schneider 12
Bilanz 595:465

Don Gilbertos Bummerln

Zeit Gegner Ergebnis Ende
16:20:31 am 09.04.2019 Takanohana 3:8 normal
16:15:21 am 09.04.2019 jumbo 7:2 normal
16:04:43 am 09.04.2019 *Herr Karl u. Lehrling 8:0 autocontnormal
15:54:54 am 09.04.2019 Daniel 3:9 normal
15:49:39 am 09.04.2019 helmut.mayer 7:4 normal
15:47:37 am 09.04.2019 DELETED 0:7 normal
15:41:09 am 09.04.2019 da Bestaste 8:1 normal
15:33:57 am 09.04.2019 Apathy Jozsef 8:4 normal
15:29:34 am 09.04.2019 Victoria 2:7 normal
15:24:05 am 09.04.2019 Otto Fuss 4:7 normal
15:19:24 am 09.04.2019 Johannes Grünanger 7:2 normal
15:12:46 am 09.04.2019 I am Wiesel 5:7 normal
15:05:21 am 09.04.2019 champlooser 8:3 normal
14:59:41 am 09.04.2019 Torsten Wolfi 7:2 normal
14:54:24 am 09.04.2019 chaot36 8:3 normal
14:47:40 am 09.04.2019 Harry P 8:6 normal
17:36:37 am 08.04.2019 Walter 2:7 normal
17:33:23 am 08.04.2019 rs 7:0 normal
17:28:22 am 08.04.2019 Fischer Rudi 0:8 normal
17:24:47 am 08.04.2019 schoelli 8:3 normal
17:20:28 am 08.04.2019 Nicki Wi 8:4 normal
17:15:05 am 08.04.2019 DELETED 5:7 normal
17:10:02 am 08.04.2019 Patrick 8:6 normal
17:04:51 am 08.04.2019 Punti 7:6 normal
16:55:02 am 08.04.2019 *Gerhard 7:6 autocontnormal
16:49:46 am 08.04.2019 Cheesy 2:7 normal
16:43:31 am 08.04.2019 Martin 6:7 normal
16:36:45 am 08.04.2019 *Pascal 8:1 autocontnormal
16:34:01 am 08.04.2019 Speedy 7:0 normal
16:28:36 am 08.04.2019 BullittGroupLimited ... 9:2 normal
16:25:01 am 08.04.2019 Walter Striegl 2:7 normal
16:18:42 am 08.04.2019 LEO 4:7 normal
16:17:17 am 08.04.2019 Josef II 9:2 normal
16:11:51 am 08.04.2019 Stefan 7:6 normal
16:07:12 am 08.04.2019 Mich 3:7 normal
16:03:39 am 08.04.2019 Miha 0:7 normal
15:57:10 am 08.04.2019 manuela 8:6 normal
15:51:58 am 08.04.2019 Stefan Maußer 7:0 normal
15:48:58 am 08.04.2019 simi 4:8 normal
15:42:49 am 08.04.2019 Dušan Škofič 4:7 normal
13:27:38 am 08.04.2019 PeBi 2:8 normal
13:24:35 am 08.04.2019 schaninski 3:7 normal
13:21:45 am 08.04.2019 Blume1960 7:2 normal
13:18:23 am 08.04.2019 Sony G8441 1:8 normal
13:12:19 am 08.04.2019 fredi 3:8 normal
13:03:15 am 08.04.2019 *Friedrich Eisenberger 7:4 autocontnormal
12:58:37 am 08.04.2019 hibsboy 7:4 normal
12:52:13 am 08.04.2019 *herminator8954 7:3 autocontnormal
12:48:34 am 08.04.2019 Maria 123 8:0 normal
12:42:29 am 08.04.2019 Babsi 7:6 normal
12:37:58 am 08.04.2019 Mandy.Sch 2:7 normal
12:30:51 am 08.04.2019 Tante_Resi 9:5 normal
12:25:50 am 08.04.2019 rainer 7:4 normal
12:18:48 am 08.04.2019 Josef Rasser 8:3 normal
12:14:16 am 08.04.2019 hallo1 8:6 normal
12:10:05 am 08.04.2019 klima 5:7 normal
12:02:35 am 08.04.2019 Fritz 5:7 normal
11:59:52 am 08.04.2019 Peter2000PeterPingist 7:5 normal
19:45:23 am 06.04.2019 Ligidaro 8:0 normal
19:40:28 am 06.04.2019 _Rio _ 9:3 normal
19:33:53 am 06.04.2019 L.h. 7:6 normal
19:18:14 am 06.04.2019 LG-K420 6:7 normal
19:13:57 am 06.04.2019 Glücksmädel 1:9 normal
19:10:19 am 06.04.2019 Anton 7:6 normal
19:06:38 am 06.04.2019 silke 2:8 normal
19:01:22 am 06.04.2019 Findus Fossa 4:8 normal
23:04:22 am 05.04.2019 Johann Spitzhofer 3:7 normal
23:00:58 am 05.04.2019 *Lucky 7:2 autocontnormal
22:56:28 am 05.04.2019 Km 7:0 normal
22:54:12 am 05.04.2019 O.K. 8:0 normal
22:46:06 am 05.04.2019 Maier Fredl 8:6 normal
22:40:24 am 05.04.2019 Daniel 8:1 normal
22:36:38 am 05.04.2019 Marjan 7:0 normal
22:28:36 am 05.04.2019 bebekoli 6:7 normal
21:29:57 am 05.04.2019 JM 62 7:2 normal
21:25:12 am 05.04.2019 Hr. Werner 8:4 normal
21:20:13 am 05.04.2019 maga28 5:7 normal
21:14:10 am 05.04.2019 getshogged 6:8 normal
21:08:56 am 05.04.2019 Forelle 62 7:4 normal
21:03:02 am 05.04.2019 Rene84 4:7 normal
20:56:07 am 05.04.2019 .sledge. 7:4 normal
15:57:40 am 05.04.2019 Onkl 9:1 normal
15:51:57 am 05.04.2019 Bogdán Zoltánné Gyön... 7:1 normal
15:00:04 am 05.04.2019 Spieljunge13 7:4 normal
14:56:03 am 05.04.2019 biber2008 6:8 normal
14:49:26 am 05.04.2019 Tadej Gorjup 8:1 normal
13:39:24 am 05.04.2019 Servus 8:1 normal
13:33:02 am 05.04.2019 Atina 8:5 normal
19:02:18 am 02.04.2019 Alex 9:6 normal
18:59:21 am 02.04.2019 Winzerkönig 9:0 normal
18:53:58 am 02.04.2019 Fruhli 7:5 normal
18:09:32 am 02.04.2019 dr.wu 0:7 normal
18:06:20 am 02.04.2019 petzilein 8:0 normal
18:00:16 am 02.04.2019 wuff123 8:5 normal
17:56:16 am 02.04.2019 *DELETED 7:4 autocontnormal
17:53:04 am 02.04.2019 Puiu Macula 7:0 normal
16:37:32 am 01.04.2019 SCR 3:7 normal
16:28:50 am 01.04.2019 Zuckerhaserl 6:7 normal
16:23:16 am 01.04.2019 Sonja742Sonja 7:3 normal
16:02:13 am 01.04.2019 Strizzi 1:7 normal